createdAt,value
2022-08-04T00:01:45.913Z,17.80
2022-08-04T00:04:24.749Z,17.80
2022-08-04T00:07:06.777Z,17.70
2022-08-04T00:09:44.093Z,17.40
2022-08-04T00:12:12.677Z,17.20
2022-08-04T00:14:48.872Z,17.10
2022-08-04T00:17:19.914Z,17.20
2022-08-04T00:19:49.921Z,17.30
2022-08-04T00:22:21.159Z,17.30
2022-08-04T00:24:48.444Z,17.30
2022-08-04T00:27:16.195Z,17.30
2022-08-04T00:29:43.414Z,17.40
2022-08-04T00:32:10.259Z,17.30
2022-08-04T00:34:37.470Z,17.10
2022-08-04T00:37:06.349Z,16.80
2022-08-04T00:39:33.693Z,16.80
2022-08-04T00:42:58.656Z,16.80
2022-08-04T00:46:15.516Z,16.90
2022-08-04T00:49:18.001Z,16.90
2022-08-04T00:52:30.701Z,16.90
2022-08-04T00:55:09.173Z,16.80
2022-08-04T00:58:05.963Z,16.80
2022-08-04T01:00:43.057Z,16.80
2022-08-04T01:03:20.313Z,16.80
2022-08-04T01:05:56.321Z,16.70
2022-08-04T01:08:41.294Z,16.60
2022-08-04T01:11:31.456Z,16.40
2022-08-04T01:14:16.937Z,16.30
2022-08-04T01:16:56.254Z,16.30
2022-08-04T01:20:02.180Z,16.30
2022-08-04T01:22:32.458Z,16.30
2022-08-04T01:25:10.822Z,16.30
2022-08-04T01:28:03.081Z,16.40
2022-08-04T01:30:33.655Z,16.40
2022-08-04T01:33:07.986Z,16.40
2022-08-04T01:35:56.828Z,16.30
2022-08-04T01:38:30.703Z,16.30
2022-08-04T01:41:02.544Z,16.10
2022-08-04T01:43:32.543Z,16.20
2022-08-04T01:46:04.619Z,16.20
2022-08-04T01:48:32.689Z,16.20
2022-08-04T01:51:08.418Z,16.00
2022-08-04T01:53:40.214Z,16.10
2022-08-04T01:56:09.622Z,15.90
2022-08-04T01:58:38.327Z,15.80
2022-08-04T02:01:10.943Z,15.60
2022-08-04T02:04:20.715Z,15.70
2022-08-04T02:06:56.109Z,15.80
2022-08-04T02:09:36.182Z,15.70
2022-08-04T02:12:59.947Z,15.60
2022-08-04T02:15:41.286Z,15.50
2022-08-04T02:18:18.138Z,15.50
2022-08-04T02:20:48.447Z,15.50
2022-08-04T02:23:22.643Z,15.50
2022-08-04T02:25:57.905Z,15.60
2022-08-04T02:28:46.415Z,15.70
2022-08-04T02:31:33.330Z,15.80
2022-08-04T02:34:29.297Z,15.80
2022-08-04T02:36:59.001Z,15.80
2022-08-04T02:39:31.427Z,15.80
2022-08-04T02:42:15.477Z,15.70
2022-08-04T02:44:43.575Z,15.70
2022-08-04T02:47:11.610Z,15.50
2022-08-04T02:49:41.240Z,15.40
2022-08-04T02:52:12.580Z,15.30
2022-08-04T02:54:42.817Z,15.10
2022-08-04T02:57:11.823Z,15.00
2022-08-04T03:00:14.325Z,15.00
2022-08-04T03:03:15.130Z,14.90
2022-08-04T03:06:11.540Z,14.80
2022-08-04T03:09:01.540Z,14.80
2022-08-04T03:12:08.375Z,14.80
2022-08-04T03:14:57.266Z,14.70
2022-08-04T03:17:53.228Z,14.80
2022-08-04T03:20:35.582Z,14.80
2022-08-04T03:23:37.368Z,14.80
2022-08-04T03:26:34.217Z,15.00
2022-08-04T03:29:38.691Z,14.90
2022-08-04T03:32:16.382Z,14.90
2022-08-04T03:35:03.030Z,14.70
2022-08-04T03:37:53.291Z,14.70
2022-08-04T03:40:36.385Z,14.50
2022-08-04T03:43:57.920Z,14.40
2022-08-04T03:46:31.644Z,14.60
2022-08-04T03:49:36.187Z,14.70
2022-08-04T03:52:47.296Z,14.80
2022-08-04T03:55:14.093Z,14.60
2022-08-04T03:58:13.421Z,14.60
2022-08-04T04:01:17.202Z,14.50
2022-08-04T04:04:19.261Z,14.40
2022-08-04T04:07:05.226Z,14.50
2022-08-04T04:10:05.921Z,14.60
2022-08-04T04:12:55.262Z,14.80
2022-08-04T04:15:40.049Z,14.80
2022-08-04T04:18:22.358Z,15.00
2022-08-04T04:21:25.250Z,15.00
2022-08-04T04:24:15.802Z,15.00
2022-08-04T04:27:14.067Z,14.90
2022-08-04T04:29:46.498Z,15.00
2022-08-04T04:32:50.237Z,14.90
2022-08-04T04:35:38.248Z,15.00
2022-08-04T04:38:38.048Z,14.90
2022-08-04T04:41:23.712Z,15.10
2022-08-04T04:44:08.543Z,15.40
2022-08-04T04:46:58.374Z,15.50
2022-08-04T04:49:43.118Z,15.70
2022-08-04T04:52:32.491Z,15.90
2022-08-04T04:55:09.148Z,16.00
2022-08-04T04:57:52.514Z,16.20
2022-08-04T05:00:25.027Z,16.30
2022-08-04T05:03:00.646Z,16.40
2022-08-04T05:05:39.710Z,16.50
2022-08-04T05:08:43.770Z,16.70
2022-08-04T05:11:16.242Z,16.70
2022-08-04T05:14:38.861Z,16.90
2022-08-04T05:16:47.092Z,16.90
2022-08-04T05:19:45.253Z,17.00
2022-08-04T05:22:25.317Z,17.20
2022-08-04T05:25:01.782Z,17.30
2022-08-04T05:27:40.352Z,17.50
2022-08-04T05:30:09.243Z,17.70
2022-08-04T05:32:45.218Z,17.90
2022-08-04T05:35:52.111Z,17.90
2022-08-04T05:38:17.095Z,18.10
2022-08-04T05:40:44.331Z,18.30
2022-08-04T05:43:13.623Z,18.40
2022-08-04T05:45:41.394Z,18.50
2022-08-04T05:48:09.594Z,18.60
2022-08-04T05:50:37.310Z,18.70
2022-08-04T05:53:05.153Z,18.80
2022-08-04T05:55:56.634Z,18.90
2022-08-04T05:58:20.647Z,19.10
2022-08-04T06:00:52.229Z,19.20
2022-08-04T06:03:21.272Z,19.30
2022-08-04T06:05:49.813Z,19.40
2022-08-04T06:08:16.706Z,19.50
2022-08-04T06:10:46.100Z,19.60
2022-08-04T06:13:48.573Z,19.70
2022-08-04T06:16:06.610Z,19.90
2022-08-04T06:20:00.491Z,20.10
2022-08-04T06:21:26.839Z,20.20
2022-08-04T06:24:00.907Z,20.40
2022-08-04T06:26:32.933Z,20.50
2022-08-04T06:29:01.430Z,20.70
2022-08-04T06:32:26.839Z,20.80
2022-08-04T06:34:32.527Z,21.00
2022-08-04T06:37:00.315Z,21.20
2022-08-04T06:39:29.466Z,21.40
2022-08-04T06:42:22.161Z,21.70
2022-08-04T06:44:46.021Z,21.90
2022-08-04T06:47:14.043Z,22.20
2022-08-04T06:49:55.058Z,22.40
2022-08-04T06:52:30.087Z,22.50
2022-08-04T06:54:59.274Z,22.70
2022-08-04T06:57:28.855Z,22.90
2022-08-04T06:59:58.554Z,23.10
2022-08-04T07:02:27.767Z,23.30
2022-08-04T07:04:55.574Z,23.40
2022-08-04T07:07:36.752Z,23.70
2022-08-04T07:10:12.329Z,23.80
2022-08-04T07:12:46.209Z,23.90
2022-08-04T07:15:14.443Z,24.10
2022-08-04T07:17:42.327Z,24.20
2022-08-04T07:20:09.642Z,24.30
2022-08-04T07:22:36.976Z,24.50
2022-08-04T07:25:12.759Z,24.60
2022-08-04T07:27:47.749Z,24.80
2022-08-04T07:30:20.628Z,24.90
2022-08-04T07:32:49.943Z,25.00
2022-08-04T07:36:03.765Z,25.20
2022-08-04T07:38:05.747Z,25.40
2022-08-04T07:40:36.805Z,25.50
2022-08-04T07:43:04.679Z,25.80
2022-08-04T07:45:32.035Z,25.90
2022-08-04T07:48:04.761Z,25.90
2022-08-04T07:50:33.939Z,26.10
2022-08-04T07:53:53.013Z,26.30
2022-08-04T07:55:49.370Z,26.40
2022-08-04T07:58:16.163Z,26.70
2022-08-04T08:00:46.546Z,26.80
2022-08-04T08:03:13.975Z,26.90
2022-08-04T08:05:54.605Z,27.10
2022-08-04T08:08:28.447Z,27.30
2022-08-04T08:10:55.497Z,27.50
2022-08-04T08:13:23.813Z,27.60
2022-08-04T08:15:52.479Z,27.70
2022-08-04T08:18:19.288Z,27.80
2022-08-04T08:20:46.856Z,28.00
2022-08-04T08:23:13.766Z,28.00
2022-08-04T08:25:40.871Z,28.10
2022-08-04T08:28:07.950Z,28.20
2022-08-04T08:30:35.033Z,28.20
2022-08-04T08:33:06.493Z,28.30
2022-08-04T08:35:58.756Z,28.50
2022-08-04T08:38:55.362Z,28.60
2022-08-04T08:41:40.597Z,28.70
2022-08-04T08:44:30.030Z,28.80
2022-08-04T08:47:28.661Z,29.10
2022-08-04T08:50:37.157Z,29.30
2022-08-04T08:53:20.409Z,29.40
2022-08-04T08:56:19.689Z,29.60
2022-08-04T08:59:35.516Z,29.50
2022-08-04T09:02:24.482Z,29.60
2022-08-04T09:05:35.906Z,29.80
2022-08-04T09:08:42.048Z,29.90
2022-08-04T09:11:14.532Z,30.10
2022-08-04T09:13:50.072Z,30.10
2022-08-04T09:16:28.533Z,30.20
2022-08-04T09:19:05.215Z,30.30
2022-08-04T09:21:47.128Z,30.30
2022-08-04T09:24:38.332Z,30.50
2022-08-04T09:27:16.051Z,30.70
2022-08-04T09:30:05.829Z,30.60
2022-08-04T09:32:39.763Z,30.70
2022-08-04T09:35:13.338Z,30.80
2022-08-04T09:38:26.420Z,30.80
2022-08-04T09:41:47.366Z,30.80
2022-08-04T09:44:50.975Z,31.00
2022-08-04T09:47:39.873Z,31.30
2022-08-04T09:50:29.103Z,31.30
2022-08-04T09:53:25.945Z,31.30
2022-08-04T09:56:09.501Z,31.40
2022-08-04T09:59:16.883Z,31.60
2022-08-04T10:01:46.903Z,31.40
2022-08-04T10:04:29.367Z,31.50
2022-08-04T10:07:13.800Z,31.40
2022-08-04T10:10:14.600Z,31.60
2022-08-04T10:13:04.852Z,31.80
2022-08-04T10:15:43.430Z,32.00
2022-08-04T10:18:48.326Z,32.30
2022-08-04T10:21:36.826Z,32.50
2022-08-04T10:25:02.188Z,32.30
2022-08-04T10:27:33.872Z,32.50
2022-08-04T10:30:11.912Z,32.40
2022-08-04T10:33:16.118Z,32.40
2022-08-04T10:35:50.945Z,32.60
2022-08-04T10:38:33.430Z,32.70
2022-08-04T10:41:18.218Z,32.60
2022-08-04T10:44:26.901Z,32.80
2022-08-04T10:47:04.561Z,32.70
2022-08-04T10:49:37.849Z,32.80
2022-08-04T10:52:23.739Z,33.10
2022-08-04T10:54:58.134Z,33.30
2022-08-04T10:57:54.743Z,33.20
2022-08-04T11:00:29.562Z,33.40
2022-08-04T11:03:09.046Z,33.50
2022-08-04T11:05:59.078Z,33.50
2022-08-04T11:08:35.400Z,33.30
2022-08-04T11:11:20.385Z,33.20
2022-08-04T11:14:02.030Z,33.40
2022-08-04T11:17:05.251Z,33.70
2022-08-04T11:19:42.580Z,33.90
2022-08-04T11:22:23.675Z,33.80
2022-08-04T11:24:54.102Z,33.60
2022-08-04T11:27:37.237Z,33.80
2022-08-04T11:30:08.795Z,34.00
2022-08-04T11:33:00.023Z,34.00
2022-08-04T11:35:43.677Z,34.00
2022-08-04T11:38:29.087Z,34.20
2022-08-04T11:41:07.942Z,34.40
2022-08-04T11:44:03.175Z,34.30
2022-08-04T11:46:42.041Z,34.30
2022-08-04T11:49:09.086Z,34.50
2022-08-04T11:51:37.054Z,34.90
2022-08-04T11:54:04.598Z,34.90
2022-08-04T11:56:35.735Z,34.80
2022-08-04T11:59:07.431Z,34.90
2022-08-04T12:02:02.438Z,35.30
2022-08-04T12:05:02.089Z,35.30
2022-08-04T12:07:44.350Z,35.30
2022-08-04T12:10:42.994Z,35.50
2022-08-04T12:13:23.882Z,35.80
2022-08-04T12:15:50.983Z,35.80
2022-08-04T12:18:40.506Z,35.80
2022-08-04T12:21:24.101Z,35.90
2022-08-04T12:24:00.882Z,36.00
2022-08-04T12:26:32.573Z,35.90
2022-08-04T12:29:10.455Z,36.00
2022-08-04T12:31:49.060Z,35.80
2022-08-04T12:34:29.729Z,35.90
2022-08-04T12:37:06.739Z,36.20
2022-08-04T12:39:36.350Z,36.50
2022-08-04T12:42:29.764Z,36.90
2022-08-04T12:44:59.197Z,37.60
2022-08-04T12:47:29.389Z,38.30
2022-08-04T12:50:04.216Z,38.40
2022-08-04T12:55:30.032Z,38.70
2022-08-04T12:57:58.342Z,39.10
2022-08-04T13:00:39.680Z,39.00
2022-08-04T13:03:10.998Z,39.30
2022-08-04T13:05:40.637Z,39.30
2022-08-04T13:08:10.062Z,39.30
2022-08-04T13:10:42.407Z,39.70
2022-08-04T13:13:18.349Z,40.10
2022-08-04T13:15:59.065Z,39.60
2022-08-04T13:18:32.344Z,40.00
2022-08-04T13:21:20.570Z,40.80
2022-08-04T13:24:10.143Z,41.00
2022-08-04T13:26:54.296Z,41.10
2022-08-04T13:29:59.595Z,41.30
2022-08-04T13:32:22.393Z,41.30
2022-08-04T13:34:52.579Z,41.70
2022-08-04T13:37:31.629Z,40.80
2022-08-04T13:40:00.066Z,41.10
2022-08-04T13:42:28.328Z,41.40
2022-08-04T13:44:59.685Z,41.80
2022-08-04T13:47:34.026Z,41.90
2022-08-04T13:50:11.952Z,42.60
2022-08-04T13:52:41.006Z,42.70
2022-08-04T13:55:08.681Z,42.70
2022-08-04T13:57:45.509Z,42.80
2022-08-04T14:00:12.875Z,42.80
2022-08-04T14:03:03.494Z,42.90
2022-08-04T14:06:12.689Z,42.10
2022-08-04T14:08:55.862Z,41.00
2022-08-04T14:12:06.111Z,41.80
2022-08-04T14:14:30.090Z,42.40
2022-08-04T14:17:19.920Z,42.30
2022-08-04T14:19:47.768Z,42.60
2022-08-04T14:22:27.015Z,42.10
2022-08-04T14:24:59.614Z,42.20
2022-08-04T14:27:29.327Z,42.60
2022-08-04T14:29:56.174Z,42.20
2022-08-04T14:32:26.034Z,42.20
2022-08-04T14:34:53.323Z,42.40
2022-08-04T14:37:22.379Z,41.90
2022-08-04T14:40:18.714Z,41.60
2022-08-04T14:42:55.312Z,40.90
2022-08-04T14:45:54.896Z,41.40
2022-08-04T14:48:22.948Z,41.30
2022-08-04T14:50:50.835Z,41.80
2022-08-04T14:53:29.250Z,42.70
2022-08-04T14:55:58.368Z,42.30
2022-08-04T14:58:34.445Z,42.00
2022-08-04T15:01:10.582Z,41.80
2022-08-04T15:03:50.205Z,40.80
2022-08-04T15:06:23.382Z,40.80
2022-08-04T15:08:51.831Z,41.30
2022-08-04T15:11:23.007Z,42.20
2022-08-04T15:13:56.132Z,41.50
2022-08-04T15:16:27.105Z,42.20
2022-08-04T15:18:56.927Z,42.10
2022-08-04T15:21:28.054Z,42.70
2022-08-04T15:23:58.805Z,42.60
2022-08-04T15:26:31.615Z,42.50
2022-08-04T15:29:05.587Z,42.30
2022-08-04T15:32:06.227Z,42.40
2022-08-04T15:34:25.828Z,43.20
2022-08-04T15:36:57.855Z,43.50
2022-08-04T15:39:37.433Z,43.50
2022-08-04T15:42:20.896Z,43.60
2022-08-04T15:45:22.237Z,43.80
2022-08-04T15:48:02.729Z,44.30
2022-08-04T15:50:30.050Z,44.20
2022-08-04T15:53:10.675Z,44.30
2022-08-04T15:55:42.850Z,43.90
2022-08-04T15:58:12.266Z,43.40
2022-08-04T16:00:50.930Z,43.80
2022-08-04T16:03:57.750Z,43.50
2022-08-04T16:06:22.879Z,44.30
2022-08-04T16:08:57.206Z,44.00
2022-08-04T16:11:31.734Z,43.90
2022-08-04T16:13:59.051Z,43.50
2022-08-04T16:16:42.283Z,43.10
2022-08-04T16:19:16.505Z,43.10
2022-08-04T16:21:49.287Z,43.30
2022-08-04T16:24:37.571Z,43.40
2022-08-04T16:27:11.448Z,43.60
2022-08-04T16:29:43.270Z,43.30
2022-08-04T16:32:23.531Z,42.60
2022-08-04T16:34:56.739Z,42.90
2022-08-04T16:37:37.788Z,42.70
2022-08-04T16:40:38.770Z,42.90
2022-08-04T16:43:13.200Z,42.70
2022-08-04T16:45:49.213Z,42.40
2022-08-04T16:48:18.442Z,42.30
2022-08-04T16:50:52.531Z,42.10
2022-08-04T16:53:53.926Z,41.70
2022-08-04T16:56:10.899Z,41.70
2022-08-04T16:58:38.078Z,42.00
2022-08-04T17:01:32.696Z,41.70
2022-08-04T17:04:06.218Z,41.40
2022-08-04T17:06:37.552Z,40.90
2022-08-04T17:09:07.109Z,40.80
2022-08-04T17:11:34.178Z,40.30
2022-08-04T17:14:05.353Z,40.40
2022-08-04T17:16:35.586Z,39.90
2022-08-04T17:19:02.645Z,38.80
2022-08-04T17:21:31.722Z,37.90
2022-08-04T17:24:14.183Z,37.10
2022-08-04T17:26:53.788Z,36.80
2022-08-04T17:29:42.812Z,36.40
2022-08-04T17:32:20.808Z,36.00
2022-08-04T17:34:50.166Z,35.70
2022-08-04T17:37:37.956Z,35.60
2022-08-04T17:40:14.021Z,35.40
2022-08-04T17:42:41.803Z,35.10
2022-08-04T17:48:08.720Z,34.40
2022-08-04T17:50:36.370Z,34.40
2022-08-04T17:53:12.252Z,34.30
2022-08-04T17:55:46.836Z,34.00
2022-08-04T17:58:21.231Z,33.80
2022-08-04T18:01:24.639Z,33.50
2022-08-04T18:03:51.806Z,33.30
2022-08-04T18:06:22.126Z,33.20
2022-08-04T18:08:57.734Z,32.90
2022-08-04T18:11:28.625Z,32.80
2022-08-04T18:13:57.186Z,32.60
2022-08-04T18:16:24.383Z,32.40
2022-08-04T18:19:11.709Z,32.30
2022-08-04T18:21:46.334Z,32.30
2022-08-04T18:24:35.433Z,32.10
2022-08-04T18:27:14.481Z,31.90
2022-08-04T18:29:41.788Z,31.60
2022-08-04T18:32:33.271Z,31.30
2022-08-04T18:35:05.082Z,31.10
2022-08-04T18:38:06.527Z,30.90
2022-08-04T18:40:26.462Z,30.70
2022-08-04T18:43:00.028Z,29.80
2022-08-04T18:45:34.449Z,29.30
2022-08-04T18:48:14.049Z,28.90
2022-08-04T18:51:11.027Z,28.70
2022-08-04T18:53:35.286Z,28.40
2022-08-04T18:56:15.408Z,28.30
2022-08-04T18:58:53.253Z,28.30
2022-08-04T19:01:20.034Z,28.10
2022-08-04T19:03:53.998Z,28.00
2022-08-04T19:06:27.432Z,27.50
2022-08-04T19:08:54.394Z,27.10
2022-08-04T19:11:38.194Z,26.80
2022-08-04T19:14:07.997Z,26.30
2022-08-04T19:16:40.949Z,26.30
2022-08-04T19:19:12.540Z,26.20
2022-08-04T19:21:59.524Z,26.30
2022-08-04T19:24:31.967Z,26.40
2022-08-04T19:27:02.264Z,26.30
2022-08-04T19:29:37.140Z,26.20
2022-08-04T19:32:14.475Z,26.00
2022-08-04T19:34:45.830Z,25.90
2022-08-04T19:37:57.779Z,25.60
2022-08-04T19:40:07.492Z,25.00
2022-08-04T19:42:35.008Z,24.80
2022-08-04T19:45:02.307Z,24.90
2022-08-04T19:48:12.268Z,25.10
2022-08-04T19:50:16.755Z,25.10
2022-08-04T19:52:51.346Z,25.10
2022-08-04T19:55:19.951Z,24.90
2022-08-04T19:57:50.173Z,24.80
2022-08-04T20:00:33.241Z,24.50
2022-08-04T20:03:02.757Z,24.10
2022-08-04T20:05:52.506Z,23.90
2022-08-04T20:08:17.465Z,23.90
2022-08-04T20:10:51.620Z,24.10
2022-08-04T20:13:19.832Z,24.10
2022-08-04T20:15:57.368Z,23.60
2022-08-04T20:18:36.505Z,23.30
2022-08-04T20:21:19.521Z,23.20
2022-08-04T20:23:52.318Z,22.90
2022-08-04T20:26:19.447Z,22.70
2022-08-04T20:28:52.567Z,22.70
2022-08-04T20:31:21.279Z,22.60
2022-08-04T20:33:49.245Z,22.60
2022-08-04T20:36:21.101Z,22.80
2022-08-04T20:38:52.846Z,22.90
2022-08-04T20:41:23.162Z,22.90
2022-08-04T20:43:50.851Z,22.80
2022-08-04T20:46:29.526Z,22.60
2022-08-04T20:48:57.883Z,22.40
2022-08-04T20:51:32.008Z,22.20
2022-08-04T20:54:01.305Z,21.90
2022-08-04T20:56:30.819Z,22.10
2022-08-04T20:59:07.621Z,22.20
2022-08-04T21:01:34.967Z,22.30
2022-08-04T21:04:28.498Z,22.30
2022-08-04T21:06:57.937Z,22.30
2022-08-04T21:09:38.498Z,22.30
2022-08-04T21:12:27.290Z,22.00
2022-08-04T21:15:01.396Z,21.40
2022-08-04T21:17:58.898Z,21.40
2022-08-04T21:20:28.348Z,21.20
2022-08-04T21:22:59.584Z,20.80
2022-08-04T21:25:29.283Z,20.80
2022-08-04T21:27:58.768Z,20.90
2022-08-04T21:30:30.892Z,20.90
2022-08-04T21:32:59.606Z,20.90
2022-08-04T21:35:37.145Z,21.10
2022-08-04T21:38:17.616Z,21.20
2022-08-04T21:40:54.677Z,21.20
2022-08-04T21:43:23.578Z,21.30
2022-08-04T21:45:55.104Z,21.10
2022-08-04T21:48:23.129Z,20.80
2022-08-04T21:50:54.242Z,20.60
2022-08-04T21:53:21.810Z,20.50
2022-08-04T21:58:39.983Z,20.50
2022-08-04T22:01:21.684Z,20.60
2022-08-04T22:03:59.404Z,20.40
2022-08-04T22:06:28.619Z,20.30
2022-08-04T22:08:56.787Z,20.30
2022-08-04T22:11:43.906Z,20.20
2022-08-04T22:14:15.317Z,20.00
2022-08-04T22:16:42.454Z,20.10
2022-08-04T22:19:10.866Z,20.20
2022-08-04T22:21:39.292Z,20.20
2022-08-04T22:24:14.205Z,20.20
2022-08-04T22:26:41.352Z,19.90
2022-08-04T22:29:14.526Z,19.60
2022-08-04T22:31:55.607Z,19.60
2022-08-04T22:34:24.912Z,19.50
2022-08-04T22:36:53.367Z,19.40
2022-08-04T22:39:23.571Z,19.30
2022-08-04T22:42:04.157Z,19.50
2022-08-04T22:44:33.391Z,19.60
2022-08-04T22:47:00.531Z,19.60
2022-08-04T22:49:31.868Z,19.50
2022-08-04T22:51:59.713Z,19.70
2022-08-04T22:54:31.711Z,19.60
2022-08-04T22:56:58.741Z,19.50
2022-08-04T22:59:26.814Z,19.40
2022-08-04T23:02:00.479Z,19.30
2022-08-04T23:04:33.445Z,19.30
2022-08-04T23:07:09.009Z,19.30
2022-08-04T23:09:50.294Z,19.40
2022-08-04T23:12:26.989Z,19.30
2022-08-04T23:14:58.435Z,19.00
2022-08-04T23:17:27.370Z,18.80
2022-08-04T23:19:57.609Z,18.60
2022-08-04T23:22:36.914Z,18.60
2022-08-04T23:25:16.144Z,18.50
2022-08-04T23:27:50.921Z,18.40
2022-08-04T23:30:21.869Z,18.40
2022-08-04T23:32:52.413Z,18.40
2022-08-04T23:35:22.181Z,18.40
2022-08-04T23:37:56.858Z,18.50
2022-08-04T23:40:32.981Z,18.50
2022-08-04T23:43:00.861Z,18.60
2022-08-04T23:46:07.604Z,18.60
2022-08-04T23:48:19.274Z,18.80
2022-08-04T23:50:48.345Z,18.80
2022-08-04T23:53:18.586Z,18.90
2022-08-04T23:55:49.653Z,18.90
2022-08-04T23:58:19.018Z,18.60
